WetterOnline ( https://www.wetteronline.de )

Wetter aktuell Backnang

Aktuelles Wetter: Kaisersbach-Cronhütte (489m)

6-stündlich | Neueste Meldungen
Ortszeit Temperatur Wetter
Mo, 27.01. 13:00 6.8° C bedeckt
Mo, 27.01. 7:00 -0.1° C bedeckt
Mo, 27.01. 1:00 -2.4° C bedeckt
So, 26.01. 19:00 0.6° C wolkenlos
So, 26.01. 13:00 8.1° C leicht bewölkt
So, 26.01. 7:00 -2.2° C Nebel
So, 26.01. 1:00 -1.5° C bedeckt
Sa, 25.01. 19:00 0.1° C bewölkt
Ortszeit Temperatur Wetter
Mo, 27.01. 16:00 7.1° C leichter Regen
Mo, 27.01. 15:50 7.1° C leichter Regen
Mo, 27.01. 15:40 7.4° C Sprühregen
Mo, 27.01. 15:30 7.8° C bedeckt
Mo, 27.01. 15:20 7.8° C bedeckt
Mo, 27.01. 15:10 7.9° C bedeckt
Mo, 27.01. 15:00 7.9° C bedeckt
Mo, 27.01. 14:30 8.0° C wolkig
Mo, 27.01. 14:00 8.1° C bedeckt
Mo, 27.01. 13:30 7.1° C bedeckt
Mo, 27.01. 13:00 6.8° C bedeckt
Ortszeit Relative Feuchte Sichtweite
Mo, 27.01. 13:00 70% 35 km
Mo, 27.01. 7:00 97% 10 km
Mo, 27.01. 1:00 98% 3.1 km
So, 26.01. 19:00 97% 10 km
So, 26.01. 13:00 70% 23 km
So, 26.01. 7:00 97% 0.5 km
So, 26.01. 1:00 98% 7 km
Sa, 25.01. 19:00 99% 4.7 km
Ortszeit Relative Feuchte Sichtweite
Mo, 27.01. 16:00 73% 13 km
Mo, 27.01. 15:50 73% -
Mo, 27.01. 15:40 71% -
Mo, 27.01. 15:30 68% 45 km
Mo, 27.01. 15:20 68% -
Mo, 27.01. 15:10 68% -
Mo, 27.01. 15:00 67% 40 km
Mo, 27.01. 14:30 67% 35 km
Mo, 27.01. 14:00 70% 35 km
Mo, 27.01. 13:30 69% 35 km
Mo, 27.01. 13:00 70% 35 km
Ortszeit Niederschlagsmenge Niederschlagsart
Mo, 27.01. 13:00 0.1 l/m2 in 6 Std. Regen
Mo, 27.01. 7:00 0.1 l/m2 in 12 Std. Regen
Mo, 27.01. 1:00 0.0 l/m2 in 6 Std. -
So, 26.01. 19:00 0.0 l/m2 in 12 Std. -
So, 26.01. 13:00 0.0 l/m2 in 6 Std. -
So, 26.01. 7:00 0.0 l/m2 in 12 Std. -
So, 26.01. 1:00 0.0 l/m2 in 6 Std. -
Sa, 25.01. 19:00 0.0 l/m2 in 12 Std. -
Ortszeit Niederschlagsmenge Niederschlagsart
Mo, 27.01. 16:00 0.1 l/m2 in 1 Std. Regen
Mo, 27.01. 15:50 keine Meldung -
Mo, 27.01. 15:40 keine Meldung -
Mo, 27.01. 15:30 0.0 l/m2 in 1 Std. -
Mo, 27.01. 15:20 keine Meldung -
Mo, 27.01. 15:10 keine Meldung -
Mo, 27.01. 15:00 0.0 l/m2 in 1 Std. -
Mo, 27.01. 14:30 0.0 l/m2 in 1 Std. -
Mo, 27.01. 14:00 0.0 l/m2 in 1 Std. -
Mo, 27.01. 13:30 0.0 l/m2 in 1 Std. -
Mo, 27.01. 13:00 0.0 l/m2 in 1 Std. Regen
Ortszeit Stärke Spitze Richtung
km/h Bft. km/h Grad Sektor
Mo, 27.01. 13:00 9 2 19 190° S
Mo, 27.01. 7:00 4 1 4 350° N
Mo, 27.01. 1:00 2 1 4 320° NW
So, 26.01. 19:00 0 0 14 - -
So, 26.01. 13:00 7 2 14 240° SW
So, 26.01. 7:00 2 1 6 300° NW
So, 26.01. 1:00 0 0 4 - -
Sa, 25.01. 19:00 0 0 7 - -
Ortszeit Stärke Spitze Richtung
km/h Bft. km/h Grad Sektor
Mo, 27.01. 16:00 7 2 14 160° S
Mo, 27.01. 15:50 7 2 - 160° S
Mo, 27.01. 15:40 7 2 - 170° S
Mo, 27.01. 15:30 7 2 14 170° S
Mo, 27.01. 15:20 7 2 - 170° S
Mo, 27.01. 15:10 7 2 - 180° S
Mo, 27.01. 15:00 7 2 22 180° S
Mo, 27.01. 14:30 7 2 20 190° S
Mo, 27.01. 14:00 6 1 17 190° S
Mo, 27.01. 13:30 7 2 14 180° S
Mo, 27.01. 13:00 9 2 17 190° S
Ortszeit Untergrenze Bedeckung Gattung
total tief tief mittel hoch
Mo, 27.01. 13:00 1500 m 8/8 8/8 - - -
Mo, 27.01. 7:00 870 m 8/8 8/8 - - -
Mo, 27.01. 1:00 2400 m 8/8 8/8 - - -
So, 26.01. 19:00 - 0/8 0/8 - - -
So, 26.01. 13:00 2400 m 8/8 1/8 - - -
So, 26.01. 7:00 <30 m 8/8 0/8 - - -
So, 26.01. 1:00 3000 m 8/8 8/8 - - -
Sa, 25.01. 19:00 3300 m 8/8 6/8 - - -
Ortszeit Bedeckungsgrad in Achtel und Wolkenuntergrenze
Mo, 27.01. 16:00 1(690m) 6(1800m) 8(2100m)
Mo, 27.01. 15:50 1(690m) 6(1800m) 8(2100m)
Mo, 27.01. 15:40 2(1290m) 5(1800m) 8(2100m)
Mo, 27.01. 15:30 2(1500m) 8(2700m) 8(4500m)
Mo, 27.01. 15:20 2(1500m) 8(2700m) 8(4500m)
Mo, 27.01. 15:10 7(1500m) 8(2400m) 8(3000m)
Mo, 27.01. 15:00 7(1800m) 8(2400m) 8(2700m)
Mo, 27.01. 14:30 1(1500m) 7(7200m) 7(9000m)
Mo, 27.01. 14:00 4(1800m) 8(2700m)
Mo, 27.01. 13:30 3(1500m) 8(2700m) 8(9000m)
Mo, 27.01. 13:00 2(1500m) 8(2700m) 8(9000m)
Ortszeit Luftdruck NN (hPa) Tendenz (hPa in 3 Std.)
Mo, 27.01. 13:00 1014 - 2,0
Mo, 27.01. 7:00 1019 - 0,4
Mo, 27.01. 1:00 1021 - 0,3
So, 26.01. 19:00 1020 + 0,1
So, 26.01. 13:00 1019 - 0,9
So, 26.01. 7:00 1022 + 0,2
So, 26.01. 1:00 1023 - 0,5
Sa, 25.01. 19:00 1023 + 0,2
Ortszeit Luftdruck NN (hPa) Tendenz (hPa in 3 Std.)
Mo, 27.01. 16:00 1012 - 2,0
Mo, 27.01. 15:50 1012 keine Meldung
Mo, 27.01. 15:40 1012 keine Meldung
Mo, 27.01. 15:30 1011 - 2,5
Mo, 27.01. 15:20 1011 keine Meldung
Mo, 27.01. 15:10 1012 keine Meldung
Mo, 27.01. 15:00 1012 - 2,8
Mo, 27.01. 14:30 1012 - 3,0
Mo, 27.01. 14:00 1012 - 2,8
Mo, 27.01. 13:30 1013 - 2,4
Mo, 27.01. 13:00 1014 - 2,0
Ortszeit Schneehöhe (cm)
Mo, 27.01. 13:00 0
Mo, 27.01. 7:00 0
Mo, 27.01. 1:00 0
So, 26.01. 19:00 0
So, 26.01. 13:00 0
So, 26.01. 7:00 0
So, 26.01. 1:00 0
Sa, 25.01. 19:00 0
Ortszeit Schneehöhe (cm)
Mo, 27.01. 16:00 0
Mo, 27.01. 15:50 0
Mo, 27.01. 15:40 0
Mo, 27.01. 15:30 0
Mo, 27.01. 15:20 0
Mo, 27.01. 15:10 0
Mo, 27.01. 15:00 0
Mo, 27.01. 14:30 0
Mo, 27.01. 14:00 0
Mo, 27.01. 13:30 0
Mo, 27.01. 13:00 0
Link zu dieser Seite / Seite empfehlen

Das Wetter in ...